sensor_id;sensor_type;location;lat;lon;timestamp;pressure;altitude;pressure_sealevel;temperature;humidity
39891;BME280;25564;53.312;9.790;2023-05-19T00:00:09;102111.50;;;8.41;62.48
39891;BME280;25564;53.312;9.790;2023-05-19T00:02:45;102104.47;;;8.42;62.17
39891;BME280;25564;53.312;9.790;2023-05-19T00:05:17;102116.03;;;8.50;62.27
39891;BME280;25564;53.312;9.790;2023-05-19T00:07:50;102116.94;;;8.52;62.20
39891;BME280;25564;53.312;9.790;2023-05-19T00:10:22;102114.31;;;8.53;62.62
39891;BME280;25564;53.312;9.790;2023-05-19T00:12:54;102111.63;;;8.50;62.48
39891;BME280;25564;53.312;9.790;2023-05-19T00:15:25;102120.53;;;8.56;62.54
39891;BME280;25564;53.312;9.790;2023-05-19T00:17:57;102119.63;;;8.55;62.25
39891;BME280;25564;53.312;9.790;2023-05-19T00:20:29;102104.56;;;8.49;62.73
39891;BME280;25564;53.312;9.790;2023-05-19T00:23:00;102096.53;;;8.43;62.82
39891;BME280;25564;53.312;9.790;2023-05-19T00:25:32;102109.03;;;8.53;62.68
39891;BME280;25564;53.312;9.790;2023-05-19T00:28:03;102094.81;;;8.45;62.74
39891;BME280;25564;53.312;9.790;2023-05-19T00:30:34;102109.88;;;8.51;62.90
39891;BME280;25564;53.312;9.790;2023-05-19T00:33:06;102108.94;;;8.47;62.83
39891;BME280;25564;53.312;9.790;2023-05-19T00:35:37;102108.91;;;8.44;63.08
39891;BME280;25564;53.312;9.790;2023-05-19T00:38:10;102107.94;;;8.39;62.91
39891;BME280;25564;53.312;9.790;2023-05-19T00:40:42;102084.88;;;8.29;63.28
39891;BME280;25564;53.312;9.790;2023-05-19T00:43:13;102084.84;;;8.26;63.12
39891;BME280;25564;53.312;9.790;2023-05-19T00:45:44;102081.22;;;8.19;63.23
39891;BME280;25564;53.312;9.790;2023-05-19T00:48:17;102065.22;;;8.09;63.09
39891;BME280;25564;53.312;9.790;2023-05-19T00:50:49;102063.34;;;8.02;63.52
39891;BME280;25564;53.312;9.790;2023-05-19T00:53:22;102096.16;;;8.16;63.38
39891;BME280;25564;53.312;9.790;2023-05-19T00:55:53;102093.44;;;8.11;63.53
39891;BME280;25564;53.312;9.790;2023-05-19T00:58:24;102080.06;;;8.01;63.65
39891;BME280;25564;53.312;9.790;2023-05-19T01:01:00;102089.88;;;8.08;63.27
39891;BME280;25564;53.312;9.790;2023-05-19T01:03:34;102070.31;;;7.97;63.66
39891;BME280;25564;53.312;9.790;2023-05-19T01:06:06;102083.66;;;8.06;63.82
39891;BME280;25564;53.312;9.790;2023-05-19T01:08:38;102061.38;;;7.87;63.66
39891;BME280;25564;53.312;9.790;2023-05-19T01:11:09;102092.47;;;8.05;63.74
39891;BME280;25564;53.312;9.790;2023-05-19T01:13:42;102077.31;;;7.93;63.50
39891;BME280;25564;53.312;9.790;2023-05-19T01:16:33;102096.84;;;8.03;64.08
39891;BME280;25564;53.312;9.790;2023-05-19T01:19:31;102094.16;;;8.00;63.92
39891;BME280;25564;53.312;9.790;2023-05-19T01:22:31;102067.44;;;7.81;64.22
39891;BME280;25564;53.312;9.790;2023-05-19T01:30:47;102094.03;;;7.92;64.07
39891;BME280;25564;53.312;9.790;2023-05-19T01:33:23;102086.97;;;7.91;64.13
39891;BME280;25564;53.312;9.790;2023-05-19T01:35:55;102101.06;;;7.92;64.28
39891;BME280;25564;53.312;9.790;2023-05-19T01:38:28;102092.28;;;7.93;64.35
39891;BME280;25564;53.312;9.790;2023-05-19T01:41:00;102075.41;;;7.84;64.55
39891;BME280;25564;53.312;9.790;2023-05-19T01:43:33;102079.81;;;7.84;64.63
39891;BME280;25564;53.312;9.790;2023-05-19T01:46:05;102092.19;;;7.86;64.49
39891;BME280;25564;53.312;9.790;2023-05-19T01:48:37;102095.75;;;7.88;64.70
39891;BME280;25564;53.312;9.790;2023-05-19T01:51:09;102081.53;;;7.80;64.80
39891;BME280;25564;53.312;9.790;2023-05-19T01:53:40;102103.66;;;7.87;64.78
39891;BME280;25564;53.312;9.790;2023-05-19T01:56:14;102104.50;;;7.84;64.59
39891;BME280;25564;53.312;9.790;2023-05-19T01:58:52;102105.31;;;7.82;65.05
39891;BME280;25564;53.312;9.790;2023-05-19T02:01:36;102083.94;;;7.67;65.00
39891;BME280;25564;53.312;9.790;2023-05-19T02:04:19;102114.91;;;7.75;65.05
39891;BME280;25564;53.312;9.790;2023-05-19T02:07:17;102080.25;;;7.57;64.97
39891;BME280;25564;53.312;9.790;2023-05-19T02:10:04;102089.19;;;7.64;65.00
39891;BME280;25564;53.312;9.790;2023-05-19T02:12:37;102109.56;;;7.72;65.12
39891;BME280;25564;53.312;9.790;2023-05-19T02:15:14;102090.13;;;7.67;65.17
39891;BME280;25564;53.312;9.790;2023-05-19T02:17:47;102083.03;;;7.65;65.57
39891;BME280;25564;53.312;9.790;2023-05-19T02:20:20;102104.38;;;7.78;65.28
39891;BME280;25564;53.312;9.790;2023-05-19T02:22:52;102092.88;;;7.75;65.25
39891;BME280;25564;53.312;9.790;2023-05-19T02:25:23;102101.84;;;7.84;65.35
39891;BME280;25564;53.312;9.790;2023-05-19T02:27:56;102072.63;;;7.75;65.30
39891;BME280;25564;53.312;9.790;2023-05-19T02:30:28;102079.81;;;7.84;65.55
39891;BME280;25564;53.312;9.790;2023-05-19T02:33:02;102093.19;;;7.95;65.62
39891;BME280;25564;53.312;9.790;2023-05-19T02:35:36;102086.19;;;7.98;65.84
39891;BME280;25564;53.312;9.790;2023-05-19T02:38:07;102080.94;;;8.00;65.94
39891;BME280;25564;53.312;9.790;2023-05-19T02:40:39;102040.09;;;7.79;65.91
39891;BME280;25564;53.312;9.790;2023-05-19T02:43:10;102058.84;;;7.96;65.99
39891;BME280;25564;53.312;9.790;2023-05-19T02:46:11;102083.78;;;8.13;66.12
39891;BME280;25564;53.312;9.790;2023-05-19T02:48:42;102084.66;;;8.12;65.79
39891;BME280;25564;53.312;9.790;2023-05-19T02:51:25;102080.28;;;8.14;66.33
39891;BME280;25564;53.312;9.790;2023-05-19T02:53:56;102090.91;;;8.19;65.89
39891;BME280;25564;53.312;9.790;2023-05-19T02:56:27;102063.47;;;8.09;66.44
39891;BME280;25564;53.312;9.790;2023-05-19T02:58:59;102069.69;;;8.13;66.18
39891;BME280;25564;53.312;9.790;2023-05-19T03:01:32;102070.63;;;8.18;65.97
39891;BME280;25564;53.312;9.790;2023-05-19T03:04:04;102078.66;;;8.24;66.34
39891;BME280;25564;53.312;9.790;2023-05-19T03:06:35;102063.59;;;8.20;66.71
39891;BME280;25564;53.312;9.790;2023-05-19T03:09:07;102051.97;;;8.07;66.77
39891;BME280;25564;53.312;9.790;2023-05-19T03:11:39;102080.50;;;8.30;66.90
39891;BME280;25564;53.312;9.790;2023-05-19T03:14:10;102073.31;;;8.21;66.53
39891;BME280;25564;53.312;9.790;2023-05-19T03:16:44;102079.63;;;8.31;66.68
39891;BME280;25564;53.312;9.790;2023-05-19T03:19:16;102084.91;;;8.31;66.90
39891;BME280;25564;53.312;9.790;2023-05-19T03:21:48;102076.94;;;8.29;66.66
39891;BME280;25564;53.312;9.790;2023-05-19T03:24:19;102051.22;;;8.16;67.07
39891;BME280;25564;53.312;9.790;2023-05-19T03:26:51;102074.34;;;8.31;67.06
39891;BME280;25564;53.312;9.790;2023-05-19T03:29:22;102065.53;;;8.32;66.96
39891;BME280;25564;53.312;9.790;2023-05-19T03:31:54;102063.72;;;8.29;66.86
39891;BME280;25564;53.312;9.790;2023-05-19T03:34:25;102063.72;;;8.29;66.92
39891;BME280;25564;53.312;9.790;2023-05-19T03:36:56;102069.97;;;8.34;66.87
39891;BME280;25564;53.312;9.790;2023-05-19T03:39:28;102053.94;;;8.22;67.12
39891;BME280;25564;53.312;9.790;2023-05-19T03:41:59;102078.81;;;8.36;67.06
39891;BME280;25564;53.312;9.790;2023-05-19T03:44:31;102072.66;;;8.37;67.12
39891;BME280;25564;53.312;9.790;2023-05-19T03:47:02;102078.84;;;8.39;67.36
39891;BME280;25564;53.312;9.790;2023-05-19T03:49:33;102068.28;;;8.39;67.24
39891;BME280;25564;53.312;9.790;2023-05-19T03:52:05;102075.41;;;8.46;67.41
39891;BME280;25564;53.312;9.790;2023-05-19T03:54:36;102075.47;;;8.49;67.49
39891;BME280;25564;53.312;9.790;2023-05-19T03:57:09;102063.94;;;8.44;67.23
39891;BME280;25564;53.312;9.790;2023-05-19T03:59:41;102063.13;;;8.51;67.16
39891;BME280;25564;53.312;9.790;2023-05-19T04:02:14;102080.03;;;8.63;67.62
39891;BME280;25564;53.312;9.790;2023-05-19T04:04:47;102071.22;;;8.64;67.33
39891;BME280;25564;53.312;9.790;2023-05-19T04:07:18;102096.06;;;8.73;67.79
39891;BME280;25564;53.312;9.790;2023-05-19T04:09:49;102094.38;;;8.80;67.60
39891;BME280;25564;53.312;9.790;2023-05-19T04:12:21;102093.56;;;8.85;67.44
39891;BME280;25564;53.312;9.790;2023-05-19T04:14:52;102075.81;;;8.78;67.33
39891;BME280;25564;53.312;9.790;2023-05-19T04:17:24;102078.56;;;8.88;67.20
39891;BME280;25564;53.312;9.790;2023-05-19T04:19:59;102104.25;;;8.96;67.13
39891;BME280;25564;53.312;9.790;2023-05-19T04:22:31;102102.53;;;9.00;67.50
39891;BME280;25564;53.312;9.790;2023-05-19T04:25:03;102078.56;;;8.88;67.21
39891;BME280;25564;53.312;9.790;2023-05-19T04:27:35;102091.94;;;8.98;67.65
39891;BME280;25564;53.312;9.790;2023-05-19T04:30:10;102095.50;;;9.03;67.40
39891;BME280;25564;53.312;9.790;2023-05-19T04:32:42;102097.31;;;9.06;67.73
39891;BME280;25564;53.312;9.790;2023-05-19T04:35:13;102087.56;;;9.02;67.27
39891;BME280;25564;53.312;9.790;2023-05-19T04:37:47;102081.41;;;9.04;67.38
39891;BME280;25564;53.312;9.790;2023-05-19T04:40:19;102092.06;;;9.10;67.85
39891;BME280;25564;53.312;9.790;2023-05-19T04:42:52;102090.22;;;9.03;67.66
39891;BME280;25564;53.312;9.790;2023-05-19T04:45:24;102089.44;;;9.12;67.79
39891;BME280;25564;53.312;9.790;2023-05-19T04:47:56;102083.22;;;9.08;67.58
39891;BME280;25564;53.312;9.790;2023-05-19T04:50:28;102100.13;;;9.21;67.92
39891;BME280;25564;53.312;9.790;2023-05-19T04:53:01;102095.72;;;9.22;67.53
39891;BME280;25564;53.312;9.790;2023-05-19T04:55:32;102085.09;;;9.18;68.01
39891;BME280;25564;53.312;9.790;2023-05-19T04:58:04;102071.88;;;9.23;67.84
39891;BME280;25564;53.312;9.790;2023-05-19T05:00:36;102090.59;;;9.43;67.76
39891;BME280;25564;53.312;9.790;2023-05-19T05:03:07;102094.19;;;9.51;67.80
39891;BME280;25564;53.312;9.790;2023-05-19T05:05:39;102099.63;;;9.66;67.51
39891;BME280;25564;53.312;9.790;2023-05-19T05:08:10;102104.13;;;9.75;67.61
39891;BME280;25564;53.312;9.790;2023-05-19T05:10:42;102103.31;;;9.87;67.49
39891;BME280;25564;53.312;9.790;2023-05-19T05:13:13;102087.44;;;9.90;67.30
39891;BME280;25564;53.312;9.790;2023-05-19T05:15:45;102091.06;;;10.01;67.23
39891;BME280;25564;53.312;9.790;2023-05-19T05:18:17;102092.00;;;10.09;67.52
39891;BME280;25564;53.312;9.790;2023-05-19T05:20:49;102085.84;;;10.13;67.22
39891;BME280;25564;53.312;9.790;2023-05-19T05:23:20;102101.03;;;10.32;66.84
39891;BME280;25564;53.312;9.790;2023-05-19T05:25:52;102107.25;;;10.46;67.37
39891;BME280;25564;53.312;9.790;2023-05-19T05:28:23;102097.53;;;10.48;66.74
39891;BME280;25564;53.312;9.790;2023-05-19T05:30:55;102085.16;;;10.49;66.70
39891;BME280;25564;53.312;9.790;2023-05-19T05:33:27;102108.25;;;10.71;66.57
39891;BME280;25564;53.312;9.790;2023-05-19T05:35:59;102096.78;;;10.74;66.93
39891;BME280;25564;53.312;9.790;2023-05-19T05:38:31;102082.59;;;10.72;66.61
39891;BME280;25564;53.312;9.790;2023-05-19T05:41:02;102114.53;;;10.90;66.53
39891;BME280;25564;53.312;9.790;2023-05-19T05:43:33;102109.22;;;10.92;66.35
39891;BME280;25564;53.312;9.790;2023-05-19T05:46:05;102113.66;;;10.91;67.02
39891;BME280;25564;53.312;9.790;2023-05-19T05:48:36;102107.44;;;10.91;66.49
39891;BME280;25564;53.312;9.790;2023-05-19T05:51:08;102103.94;;;10.96;66.33
39891;BME280;25564;53.312;9.790;2023-05-19T05:53:40;102095.06;;;10.97;66.48
39891;BME280;25564;53.312;9.790;2023-05-19T05:56:13;102107.53;;;11.20;66.15
39891;BME280;25564;53.312;9.790;2023-05-19T05:58:45;102099.59;;;11.27;66.11
39891;BME280;25564;53.312;9.790;2023-05-19T06:01:16;102103.13;;;11.34;65.70
39891;BME280;25564;53.312;9.790;2023-05-19T06:03:48;102110.22;;;11.41;66.15
39891;BME280;25564;53.312;9.790;2023-05-19T06:06:19;102117.31;;;11.43;66.21
39891;BME280;25564;53.312;9.790;2023-05-19T06:08:50;102121.72;;;11.46;65.72
39891;BME280;25564;53.312;9.790;2023-05-19T06:11:22;102113.75;;;11.46;66.12
39891;BME280;25564;53.312;9.790;2023-05-19T06:13:53;102108.44;;;11.44;65.63
39891;BME280;25564;53.312;9.790;2023-05-19T06:16:24;102109.31;;;11.51;66.06
39891;BME280;25564;53.312;9.790;2023-05-19T06:18:56;102104.00;;;11.54;65.86
39891;BME280;25564;53.312;9.790;2023-05-19T06:21:29;102118.19;;;11.65;65.54
39891;BME280;25564;53.312;9.790;2023-05-19T06:24:00;102104.91;;;11.68;65.38
39891;BME280;25564;53.312;9.790;2023-05-19T06:26:31;102112.91;;;11.82;65.32
39891;BME280;25564;53.312;9.790;2023-05-19T06:29:03;102114.69;;;11.88;65.23
39891;BME280;25564;53.312;9.790;2023-05-19T06:31:34;102086.31;;;11.90;65.02
39891;BME280;25564;53.312;9.790;2023-05-19T06:34:05;102102.25;;;12.03;65.12
39891;BME280;25564;53.312;9.790;2023-05-19T06:36:37;102109.31;;;12.23;64.98
39891;BME280;25564;53.312;9.790;2023-05-19T06:39:08;102110.06;;;12.61;64.96
39891;BME280;25564;53.312;9.790;2023-05-19T06:41:39;102091.28;;;12.93;64.38
39891;BME280;25564;53.312;9.790;2023-05-19T06:44:11;102104.50;;;13.18;63.89
39891;BME280;25564;53.312;9.790;2023-05-19T06:46:42;102112.41;;;13.36;63.64
39891;BME280;25564;53.312;9.790;2023-05-19T06:49:14;102118.53;;;13.47;63.45
39891;BME280;25564;53.312;9.790;2023-05-19T06:51:46;102112.28;;;13.51;63.35
39891;BME280;25564;53.312;9.790;2023-05-19T06:54:17;102098.09;;;13.46;63.04
39891;BME280;25564;53.312;9.790;2023-05-19T06:56:49;102103.47;;;13.43;63.12
39891;BME280;25564;53.312;9.790;2023-05-19T06:59:20;102093.69;;;13.44;62.68
39891;BME280;25564;53.312;9.790;2023-05-19T07:01:53;102113.97;;;13.61;62.89
39891;BME280;25564;53.312;9.790;2023-05-19T07:04:24;102095.28;;;13.63;62.53
39891;BME280;25564;53.312;9.790;2023-05-19T07:06:55;102119.94;;;13.91;62.38
39891;BME280;25564;53.312;9.790;2023-05-19T07:09:27;102100.22;;;14.07;62.19
39891;BME280;25564;53.312;9.790;2023-05-19T07:11:58;102096.41;;;14.32;61.97
39891;BME280;25564;53.312;9.790;2023-05-19T07:14:30;102113.03;;;14.59;61.37
39891;BME280;25564;53.312;9.790;2023-05-19T07:17:01;102121.69;;;14.79;61.07
39891;BME280;25564;53.312;9.790;2023-05-19T07:19:33;102105.75;;;14.70;60.39
39891;BME280;25564;53.312;9.790;2023-05-19T07:22:04;102119.88;;;14.81;60.06
39891;BME280;25564;53.312;9.790;2023-05-19T07:24:36;102117.16;;;14.86;59.59
39891;BME280;25564;53.312;9.790;2023-05-19T07:27:08;102127.53;;;15.09;58.82
39891;BME280;25564;53.312;9.790;2023-05-19T07:29:39;102102.47;;;15.17;58.60
39891;BME280;25564;53.312;9.790;2023-05-19T07:32:11;102115.53;;;15.37;58.13
39891;BME280;25564;53.312;9.790;2023-05-19T07:34:42;102114.28;;;15.61;57.45
39891;BME280;25564;53.312;9.790;2023-05-19T07:37:14;102114.09;;;15.73;56.91
39891;BME280;25564;53.312;9.790;2023-05-19T07:39:46;102107.47;;;15.94;56.61
39891;BME280;25564;53.312;9.790;2023-05-19T07:42:18;102113.22;;;16.22;55.85
39891;BME280;25564;53.312;9.790;2023-05-19T07:44:49;102102.69;;;16.59;55.80
39891;BME280;25564;53.312;9.790;2023-05-19T07:47:20;102124.13;;;17.02;55.34
39891;BME280;25564;53.312;9.790;2023-05-19T07:49:52;102116.16;;;17.38;54.92
39891;BME280;25564;53.312;9.790;2023-05-19T07:52:23;102121.31;;;17.47;54.32
39891;BME280;25564;53.312;9.790;2023-05-19T07:54:55;102074.66;;;17.15;54.25
39891;BME280;25564;53.312;9.790;2023-05-19T07:57:26;102113.59;;;17.33;54.09
39891;BME280;25564;53.312;9.790;2023-05-19T07:59:57;102106.25;;;17.41;53.61
39891;BME280;25564;53.312;9.790;2023-05-19T08:02:29;102112.16;;;17.55;52.96
39891;BME280;25564;53.312;9.790;2023-05-19T08:05:01;102094.00;;;17.29;53.02
39891;BME280;25564;53.312;9.790;2023-05-19T08:07:32;102099.03;;;17.43;52.90
39891;BME280;25564;53.312;9.790;2023-05-19T08:10:04;102115.41;;;17.70;52.63
39891;BME280;25564;53.312;9.790;2023-05-19T08:12:36;102101.81;;;17.76;52.27
39891;BME280;25564;53.312;9.790;2023-05-19T08:15:07;102113.84;;;17.95;51.74
39891;BME280;25564;53.312;9.790;2023-05-19T08:17:41;102111.94;;;18.00;51.66
39891;BME280;25564;53.312;9.790;2023-05-19T08:20:14;102098.69;;;17.92;51.14
39891;BME280;25564;53.312;9.790;2023-05-19T08:22:45;102114.09;;;18.20;50.99
39891;BME280;25564;53.312;9.790;2023-05-19T08:25:16;102111.53;;;18.48;50.36
39891;BME280;25564;53.312;9.790;2023-05-19T08:27:49;102110.78;;;18.74;49.86
39891;BME280;25564;53.312;9.790;2023-05-19T08:30:21;102105.72;;;18.65;49.48
39891;BME280;25564;53.312;9.790;2023-05-19T08:32:53;102109.28;;;18.65;49.84
39891;BME280;25564;53.312;9.790;2023-05-19T08:35:24;102110.31;;;18.59;49.11
39891;BME280;25564;53.312;9.790;2023-05-19T08:37:56;102109.78;;;18.47;49.34
39891;BME280;25564;53.312;9.790;2023-05-19T08:40:27;102099.69;;;18.55;49.24
39891;BME280;25564;53.312;9.790;2023-05-19T08:43:02;102105.59;;;18.69;48.84
39891;BME280;25564;53.312;9.790;2023-05-19T08:45:33;102094.78;;;18.71;48.66
39891;BME280;25564;53.312;9.790;2023-05-19T08:48:06;102095.97;;;18.90;48.19
39891;BME280;25564;53.312;9.790;2023-05-19T08:50:38;102081.91;;;18.80;48.26
39891;BME280;25564;53.312;9.790;2023-05-19T08:53:16;102094.56;;;19.06;47.77
39891;BME280;25564;53.312;9.790;2023-05-19T08:56:07;102085.69;;;19.32;47.72
39891;BME280;25564;53.312;9.790;2023-05-19T08:58:41;102086.13;;;19.46;47.40
39891;BME280;25564;53.312;9.790;2023-05-19T09:01:14;102075.34;;;19.46;46.91
39891;BME280;25564;53.312;9.790;2023-05-19T09:03:50;102072.03;;;19.38;46.70
39891;BME280;25564;53.312;9.790;2023-05-19T09:06:22;102080.06;;;19.40;47.13
39891;BME280;25564;53.312;9.790;2023-05-19T09:08:54;102069.97;;;19.46;46.46
39891;BME280;25564;53.312;9.790;2023-05-19T09:11:25;102081.19;;;19.61;45.70
39891;BME280;25564;53.312;9.790;2023-05-19T09:13:57;102079.72;;;19.77;45.62
39891;BME280;25564;53.312;9.790;2023-05-19T09:16:29;102065.78;;;19.90;45.35
39891;BME280;25564;53.312;9.790;2023-05-19T09:19:01;102063.19;;;19.87;45.43
39891;BME280;25564;53.312;9.790;2023-05-19T09:21:32;102066.34;;;19.75;45.12
39891;BME280;25564;53.312;9.790;2023-05-19T09:24:05;102078.72;;;19.54;45.29
39891;BME280;25564;53.312;9.790;2023-05-19T09:26:38;102069.09;;;19.46;45.42
39891;BME280;25564;53.312;9.790;2023-05-19T09:29:11;102068.50;;;19.36;45.32
39891;BME280;25564;53.312;9.790;2023-05-19T09:31:53;102065.28;;;19.25;45.17
39891;BME280;25564;53.312;9.790;2023-05-19T09:34:26;102057.63;;;19.39;44.94
39891;BME280;25564;53.312;9.790;2023-05-19T09:36:57;102067.31;;;19.73;45.10
39891;BME280;25564;53.312;9.790;2023-05-19T09:39:30;102064.38;;;19.79;45.00
39891;BME280;25564;53.312;9.790;2023-05-19T09:42:03;102046.69;;;19.72;44.90
39891;BME280;25564;53.312;9.790;2023-05-19T09:44:35;102047.84;;;19.89;44.57
39891;BME280;25564;53.312;9.790;2023-05-19T09:47:08;102049.06;;;20.06;44.36
39891;BME280;25564;53.312;9.790;2023-05-19T09:49:45;102049.84;;;20.09;43.83
39891;BME280;25564;53.312;9.790;2023-05-19T09:52:17;102053.50;;;20.32;44.23
39891;BME280;25564;53.312;9.790;2023-05-19T09:54:49;102048.13;;;20.56;43.64
39891;BME280;25564;53.312;9.790;2023-05-19T09:57:25;102041.50;;;20.42;43.66
39891;BME280;25564;53.312;9.790;2023-05-19T10:00:01;102046.41;;;20.29;43.36
39891;BME280;25564;53.312;9.790;2023-05-19T10:02:42;102042.63;;;20.35;43.54
39891;BME280;25564;53.312;9.790;2023-05-19T10:05:15;102040.50;;;20.44;42.67
39891;BME280;25564;53.312;9.790;2023-05-19T10:07:52;102025.97;;;20.23;43.38
39891;BME280;25564;53.312;9.790;2023-05-19T10:10:26;102024.69;;;20.34;43.22
39891;BME280;25564;53.312;9.790;2023-05-19T10:12:57;102030.81;;;20.39;42.87
39891;BME280;25564;53.312;9.790;2023-05-19T10:15:29;102029.31;;;20.30;42.90
39891;BME280;25564;53.312;9.790;2023-05-19T10:18:02;102021.28;;;20.29;42.59
39891;BME280;25564;53.312;9.790;2023-05-19T10:20:34;102023.38;;;20.20;42.12
39891;BME280;25564;53.312;9.790;2023-05-19T10:23:05;102027.06;;;20.18;41.88
39891;BME280;25564;53.312;9.790;2023-05-19T10:25:37;102018.22;;;19.89;42.07
39891;BME280;25564;53.312;9.790;2023-05-19T10:28:13;102009.97;;;19.94;41.87
39891;BME280;25564;53.312;9.790;2023-05-19T10:30:48;102010.59;;;20.25;41.63
39891;BME280;25564;53.312;9.790;2023-05-19T10:36:35;102001.03;;;20.87;40.80
39891;BME280;25564;53.312;9.790;2023-05-19T10:39:16;101984.16;;;21.04;41.05
39891;BME280;25564;53.312;9.790;2023-05-19T10:45:09;101995.41;;;20.71;40.58
39891;BME280;25564;53.312;9.790;2023-05-19T10:47:43;102003.97;;;20.81;40.71
39891;BME280;25564;53.312;9.790;2023-05-19T10:50:15;102003.69;;;20.88;40.19
39891;BME280;25564;53.312;9.790;2023-05-19T10:52:55;102017.41;;;20.82;39.59
39891;BME280;25564;53.312;9.790;2023-05-19T10:55:54;101992.38;;;20.57;39.56
39891;BME280;25564;53.312;9.790;2023-05-19T11:01:19;101987.78;;;20.81;40.01
39891;BME280;25564;53.312;9.790;2023-05-19T11:03:54;101991.94;;;20.89;39.59
39891;BME280;25564;53.312;9.790;2023-05-19T11:06:31;101995.41;;;20.71;39.57
39891;BME280;25564;53.312;9.790;2023-05-19T11:09:17;101994.88;;;20.62;38.78
39891;BME280;25564;53.312;9.790;2023-05-19T11:11:54;101991.50;;;20.32;39.76
39891;BME280;25564;53.312;9.790;2023-05-19T11:14:27;101985.28;;;20.30;39.52
39891;BME280;25564;53.312;9.790;2023-05-19T11:16:59;101994.38;;;20.27;39.72
39891;BME280;25564;53.312;9.790;2023-05-19T11:19:33;101995.97;;;20.33;39.63
39891;BME280;25564;53.312;9.790;2023-05-19T11:22:12;101986.56;;;20.44;38.91
39891;BME280;25564;53.312;9.790;2023-05-19T11:24:46;101988.06;;;20.75;39.17
39891;BME280;25564;53.312;9.790;2023-05-19T11:27:23;101984.59;;;21.15;38.26
39891;BME280;25564;53.312;9.790;2023-05-19T11:29:56;101977.81;;;21.48;38.61
39891;BME280;25564;53.312;9.790;2023-05-19T11:32:30;101957.50;;;21.60;37.61
39891;BME280;25564;53.312;9.790;2023-05-19T11:35:04;101976.84;;;21.29;37.79
39891;BME280;25564;53.312;9.790;2023-05-19T11:37:36;101974.63;;;21.39;37.84
39891;BME280;25564;53.312;9.790;2023-05-19T11:40:07;101962.03;;;21.80;37.79
39891;BME280;25564;53.312;9.790;2023-05-19T11:42:39;101970.75;;;22.26;37.01
39891;BME280;25564;53.312;9.790;2023-05-19T11:45:10;101962.72;;;22.24;37.24
39891;BME280;25564;53.312;9.790;2023-05-19T11:47:45;101980.22;;;22.36;36.75
39891;BME280;25564;53.312;9.790;2023-05-19T11:50:33;101979.84;;;22.04;37.01
39891;BME280;25564;53.312;9.790;2023-05-19T11:53:07;101975.41;;;21.83;37.27
39891;BME280;25564;53.312;9.790;2023-05-19T11:55:45;101971.31;;;22.13;36.92
39891;BME280;25564;53.312;9.790;2023-05-19T11:58:24;101960.09;;;22.23;36.69
39891;BME280;25564;53.312;9.790;2023-05-19T12:00:56;101958.69;;;22.14;36.70
39891;BME280;25564;53.312;9.790;2023-05-19T12:03:27;101978.63;;;22.11;36.70
39891;BME280;25564;53.312;9.790;2023-05-19T12:06:02;101973.59;;;22.23;36.30
39891;BME280;25564;53.312;9.790;2023-05-19T12:08:34;101954.47;;;22.46;36.01
39891;BME280;25564;53.312;9.790;2023-05-19T12:11:05;101958.78;;;22.31;36.35
39891;BME280;25564;53.312;9.790;2023-05-19T12:13:37;101966.84;;;22.51;36.11
39891;BME280;25564;53.312;9.790;2023-05-19T12:16:09;101965.47;;;22.80;35.92
39891;BME280;25564;53.312;9.790;2023-05-19T12:18:40;101959.22;;;22.78;35.55
39891;BME280;25564;53.312;9.790;2023-05-19T12:21:12;101948.81;;;22.13;35.25
39891;BME280;25564;53.312;9.790;2023-05-19T12:23:43;101954.19;;;21.53;35.77
39891;BME280;25564;53.312;9.790;2023-05-19T12:26:15;101953.84;;;21.41;36.02
39891;BME280;25564;53.312;9.790;2023-05-19T12:28:48;101930.00;;;21.30;35.81
39891;BME280;25564;53.312;9.790;2023-05-19T12:31:21;101954.06;;;21.57;35.61
39891;BME280;25564;53.312;9.790;2023-05-19T12:33:55;101941.22;;;21.62;35.16
39891;BME280;25564;53.312;9.790;2023-05-19T12:36:27;101945.28;;;21.72;35.42
39891;BME280;25564;53.312;9.790;2023-05-19T12:38:59;101923.13;;;21.64;35.38
39891;BME280;25564;53.312;9.790;2023-05-19T12:41:30;101947.13;;;21.90;35.27
39891;BME280;25564;53.312;9.790;2023-05-19T12:44:13;101940.28;;;21.83;35.14
39891;BME280;25564;53.312;9.790;2023-05-19T12:46:44;101953.94;;;21.60;35.61
39891;BME280;25564;53.312;9.790;2023-05-19T12:49:16;101950.47;;;21.36;35.80
39891;BME280;25564;53.312;9.790;2023-05-19T12:51:53;101935.66;;;21.24;36.09
39891;BME280;25564;53.312;9.790;2023-05-19T12:54:24;101954.16;;;21.33;36.38
39891;BME280;25564;53.312;9.790;2023-05-19T12:56:57;101937.97;;;21.33;36.62
39891;BME280;25564;53.312;9.790;2023-05-19T12:59:32;101941.22;;;21.62;36.04
39891;BME280;25564;53.312;9.790;2023-05-19T13:02:09;101921.78;;;21.74;35.67
39891;BME280;25564;53.312;9.790;2023-05-19T13:04:40;101923.09;;;22.04;35.52
39891;BME280;25564;53.312;9.790;2023-05-19T13:07:12;101910.50;;;22.03;35.32
39891;BME280;25564;53.312;9.790;2023-05-19T13:09:43;101910.75;;;22.17;35.21
39891;BME280;25564;53.312;9.790;2023-05-19T13:12:15;101911.41;;;22.41;35.01
39891;BME280;25564;53.312;9.790;2023-05-19T13:14:46;101924.72;;;22.65;35.10
39891;BME280;25564;53.312;9.790;2023-05-19T13:17:17;101915.72;;;22.64;34.86
39891;BME280;25564;53.312;9.790;2023-05-19T13:19:50;101927.34;;;22.66;34.67
39891;BME280;25564;53.312;9.790;2023-05-19T13:22:22;101918.22;;;22.50;34.72
39891;BME280;25564;53.312;9.790;2023-05-19T13:24:53;101921.78;;;22.69;34.76
39891;BME280;25564;53.312;9.790;2023-05-19T13:27:28;101915.13;;;23.12;34.48
39891;BME280;25564;53.312;9.790;2023-05-19T13:30:00;101915.00;;;22.97;34.25
39891;BME280;25564;53.312;9.790;2023-05-19T13:32:32;101913.91;;;22.46;34.55
39891;BME280;25564;53.312;9.790;2023-05-19T13:35:03;101917.25;;;22.13;34.87
39891;BME280;25564;53.312;9.790;2023-05-19T13:37:35;101929.06;;;21.72;35.15